sensor_id;sensor_type;location;lat;lon;timestamp;P1;durP1;ratioP1;P2;durP2;ratioP2
12118;SDS011;6123;48.864;9.200;2023-06-14T00:01:53;3.95;;;3.65;;
12118;SDS011;6123;48.864;9.200;2023-06-14T00:04:20;4.43;;;4.03;;
12118;SDS011;6123;48.864;9.200;2023-06-14T00:06:48;4.15;;;3.60;;
12118;SDS011;6123;48.864;9.200;2023-06-14T00:09:15;4.28;;;3.80;;
12118;SDS011;6123;48.864;9.200;2023-06-14T00:11:42;5.03;;;3.78;;
12118;SDS011;6123;48.864;9.200;2023-06-14T00:14:08;3.78;;;3.47;;
12118;SDS011;6123;48.864;9.200;2023-06-14T00:16:35;6.15;;;4.38;;
12118;SDS011;6123;48.864;9.200;2023-06-14T00:19:02;4.72;;;3.60;;
12118;SDS011;6123;48.864;9.200;2023-06-14T00:21:28;4.38;;;3.97;;
12118;SDS011;6123;48.864;9.200;2023-06-14T00:23:55;5.32;;;3.70;;
12118;SDS011;6123;48.864;9.200;2023-06-14T00:26:21;6.60;;;4.05;;
12118;SDS011;6123;48.864;9.200;2023-06-14T00:28:47;3.72;;;3.42;;
12118;SDS011;6123;48.864;9.200;2023-06-14T00:31:13;4.47;;;4.07;;
12118;SDS011;6123;48.864;9.200;2023-06-14T00:33:39;5.75;;;4.28;;
12118;SDS011;6123;48.864;9.200;2023-06-14T00:36:05;4.28;;;3.88;;
12118;SDS011;6123;48.864;9.200;2023-06-14T00:38:31;4.43;;;4.03;;
12118;SDS011;6123;48.864;9.200;2023-06-14T00:40:57;4.40;;;4.07;;
12118;SDS011;6123;48.864;9.200;2023-06-14T00:43:22;5.00;;;4.53;;
12118;SDS011;6123;48.864;9.200;2023-06-14T00:45:48;4.82;;;4.40;;
12118;SDS011;6123;48.864;9.200;2023-06-14T00:48:16;6.13;;;4.20;;
12118;SDS011;6123;48.864;9.200;2023-06-14T00:50:42;4.30;;;3.90;;
12118;SDS011;6123;48.864;9.200;2023-06-14T00:53:10;5.45;;;4.30;;
12118;SDS011;6123;48.864;9.200;2023-06-14T00:55:36;4.55;;;4.15;;
12118;SDS011;6123;48.864;9.200;2023-06-14T00:58:02;6.13;;;4.47;;
12118;SDS011;6123;48.864;9.200;2023-06-14T01:00:28;5.72;;;4.90;;
12118;SDS011;6123;48.864;9.200;2023-06-14T01:02:54;5.05;;;4.55;;
12118;SDS011;6123;48.864;9.200;2023-06-14T01:05:21;4.45;;;4.05;;
12118;SDS011;6123;48.864;9.200;2023-06-14T01:12:58;4.18;;;3.78;;
12118;SDS011;6123;48.864;9.200;2023-06-14T01:15:29;4.35;;;3.95;;
12118;SDS011;6123;48.864;9.200;2023-06-14T01:17:56;4.47;;;4.07;;
12118;SDS011;6123;48.864;9.200;2023-06-14T01:20:28;5.28;;;4.13;;
12118;SDS011;6123;48.864;9.200;2023-06-14T01:22:54;4.63;;;4.20;;
12118;SDS011;6123;48.864;9.200;2023-06-14T01:25:21;4.45;;;4.03;;
12118;SDS011;6123;48.864;9.200;2023-06-14T01:27:51;4.80;;;4.40;;
12118;SDS011;6123;48.864;9.200;2023-06-14T01:30:18;6.32;;;4.45;;
12118;SDS011;6123;48.864;9.200;2023-06-14T01:32:46;4.70;;;4.20;;
12118;SDS011;6123;48.864;9.200;2023-06-14T01:35:12;4.30;;;3.83;;
12118;SDS011;6123;48.864;9.200;2023-06-14T01:37:38;5.63;;;4.07;;
12118;SDS011;6123;48.864;9.200;2023-06-14T01:40:05;5.65;;;3.85;;
12118;SDS011;6123;48.864;9.200;2023-06-14T01:42:33;4.72;;;4.30;;
12118;SDS011;6123;48.864;9.200;2023-06-14T01:45:02;5.68;;;4.43;;
12118;SDS011;6123;48.864;9.200;2023-06-14T01:47:28;4.72;;;4.32;;
12118;SDS011;6123;48.864;9.200;2023-06-14T01:49:54;4.68;;;4.10;;
12118;SDS011;6123;48.864;9.200;2023-06-14T01:52:20;6.15;;;4.35;;
12118;SDS011;6123;48.864;9.200;2023-06-14T01:54:47;4.90;;;3.88;;
12118;SDS011;6123;48.864;9.200;2023-06-14T01:57:14;4.90;;;3.90;;
12118;SDS011;6123;48.864;9.200;2023-06-14T01:59:40;4.07;;;3.78;;
12118;SDS011;6123;48.864;9.200;2023-06-14T02:02:06;4.22;;;3.78;;
12118;SDS011;6123;48.864;9.200;2023-06-14T02:04:32;4.30;;;3.90;;
12118;SDS011;6123;48.864;9.200;2023-06-14T02:06:59;4.50;;;4.10;;
12118;SDS011;6123;48.864;9.200;2023-06-14T02:09:25;4.43;;;4.03;;
12118;SDS011;6123;48.864;9.200;2023-06-14T02:11:51;4.70;;;4.30;;
12118;SDS011;6123;48.864;9.200;2023-06-14T02:14:17;5.28;;;4.78;;
12118;SDS011;6123;48.864;9.200;2023-06-14T02:16:43;4.97;;;4.13;;
12118;SDS011;6123;48.864;9.200;2023-06-14T02:19:17;6.00;;;4.82;;
12118;SDS011;6123;48.864;9.200;2023-06-14T02:21:43;4.32;;;4.03;;
12118;SDS011;6123;48.864;9.200;2023-06-14T02:24:09;4.28;;;3.88;;
12118;SDS011;6123;48.864;9.200;2023-06-14T02:26:35;5.78;;;4.32;;
12118;SDS011;6123;48.864;9.200;2023-06-14T02:29:03;4.72;;;4.32;;
12118;SDS011;6123;48.864;9.200;2023-06-14T02:31:30;9.00;;;4.35;;
12118;SDS011;6123;48.864;9.200;2023-06-14T02:33:56;4.82;;;4.43;;
12118;SDS011;6123;48.864;9.200;2023-06-14T02:36:22;4.65;;;4.00;;
12118;SDS011;6123;48.864;9.200;2023-06-14T02:38:49;5.00;;;4.05;;
12118;SDS011;6123;48.864;9.200;2023-06-14T02:41:15;5.20;;;4.47;;
12118;SDS011;6123;48.864;9.200;2023-06-14T02:43:41;4.35;;;3.95;;
12118;SDS011;6123;48.864;9.200;2023-06-14T02:46:07;5.03;;;3.92;;
12118;SDS011;6123;48.864;9.200;2023-06-14T02:48:33;5.00;;;4.40;;
12118;SDS011;6123;48.864;9.200;2023-06-14T02:50:59;4.53;;;4.13;;
12118;SDS011;6123;48.864;9.200;2023-06-14T02:53:25;4.60;;;4.20;;
12118;SDS011;6123;48.864;9.200;2023-06-14T02:55:51;4.30;;;4.00;;
12118;SDS011;6123;48.864;9.200;2023-06-14T02:58:17;4.30;;;3.97;;
12118;SDS011;6123;48.864;9.200;2023-06-14T03:00:44;5.10;;;4.60;;
12118;SDS011;6123;48.864;9.200;2023-06-14T03:03:10;4.80;;;4.30;;
12118;SDS011;6123;48.864;9.200;2023-06-14T03:05:43;4.60;;;4.20;;
12118;SDS011;6123;48.864;9.200;2023-06-14T03:08:12;5.50;;;5.00;;
12118;SDS011;6123;48.864;9.200;2023-06-14T03:10:42;6.22;;;4.40;;
12118;SDS011;6123;48.864;9.200;2023-06-14T03:13:08;4.45;;;4.07;;
12118;SDS011;6123;48.864;9.200;2023-06-14T03:15:36;6.82;;;4.85;;
12118;SDS011;6123;48.864;9.200;2023-06-14T03:18:03;5.55;;;4.95;;
12118;SDS011;6123;48.864;9.200;2023-06-14T03:20:29;4.95;;;4.38;;
12118;SDS011;6123;48.864;9.200;2023-06-14T03:22:58;6.07;;;4.65;;
12118;SDS011;6123;48.864;9.200;2023-06-14T03:25:24;4.70;;;4.30;;
12118;SDS011;6123;48.864;9.200;2023-06-14T03:27:51;5.90;;;5.10;;
12118;SDS011;6123;48.864;9.200;2023-06-14T03:30:17;6.32;;;4.80;;
12118;SDS011;6123;48.864;9.200;2023-06-14T03:32:43;5.53;;;4.78;;
12118;SDS011;6123;48.864;9.200;2023-06-14T03:35:09;5.32;;;4.63;;
12118;SDS011;6123;48.864;9.200;2023-06-14T03:37:41;4.65;;;4.25;;
12118;SDS011;6123;48.864;9.200;2023-06-14T03:40:07;4.70;;;4.30;;
12118;SDS011;6123;48.864;9.200;2023-06-14T03:42:33;4.57;;;4.28;;
12118;SDS011;6123;48.864;9.200;2023-06-14T03:44:59;4.70;;;4.30;;
12118;SDS011;6123;48.864;9.200;2023-06-14T03:47:25;4.40;;;4.10;;
12118;SDS011;6123;48.864;9.200;2023-06-14T03:49:52;4.90;;;4.50;;
12118;SDS011;6123;48.864;9.200;2023-06-14T03:52:18;6.05;;;4.63;;
12118;SDS011;6123;48.864;9.200;2023-06-14T03:54:44;5.30;;;4.80;;
12118;SDS011;6123;48.864;9.200;2023-06-14T03:57:11;7.47;;;5.45;;
12118;SDS011;6123;48.864;9.200;2023-06-14T03:59:37;5.63;;;5.13;;
12118;SDS011;6123;48.864;9.200;2023-06-14T04:02:03;6.03;;;5.05;;
12118;SDS011;6123;48.864;9.200;2023-06-14T04:04:29;4.95;;;4.50;;
12118;SDS011;6123;48.864;9.200;2023-06-14T04:06:55;6.20;;;5.10;;
12118;SDS011;6123;48.864;9.200;2023-06-14T04:09:23;5.25;;;4.55;;
12118;SDS011;6123;48.864;9.200;2023-06-14T04:11:50;6.00;;;5.22;;
12118;SDS011;6123;48.864;9.200;2023-06-14T04:14:17;7.47;;;5.38;;
12118;SDS011;6123;48.864;9.200;2023-06-14T04:16:43;6.82;;;4.93;;
12118;SDS011;6123;48.864;9.200;2023-06-14T04:19:10;6.03;;;5.13;;
12118;SDS011;6123;48.864;9.200;2023-06-14T04:21:35;7.57;;;5.03;;
12118;SDS011;6123;48.864;9.200;2023-06-14T04:24:01;7.43;;;5.32;;
12118;SDS011;6123;48.864;9.200;2023-06-14T04:26:27;5.80;;;5.03;;
12118;SDS011;6123;48.864;9.200;2023-06-14T04:28:55;5.88;;;5.13;;
12118;SDS011;6123;48.864;9.200;2023-06-14T04:31:22;8.40;;;5.57;;
12118;SDS011;6123;48.864;9.200;2023-06-14T04:33:50;8.10;;;5.80;;
12118;SDS011;6123;48.864;9.200;2023-06-14T04:36:18;6.75;;;5.93;;
12118;SDS011;6123;48.864;9.200;2023-06-14T04:38:44;6.95;;;5.60;;
12118;SDS011;6123;48.864;9.200;2023-06-14T04:41:11;6.97;;;5.50;;
12118;SDS011;6123;48.864;9.200;2023-06-14T04:43:37;9.20;;;5.78;;
12118;SDS011;6123;48.864;9.200;2023-06-14T04:46:04;6.45;;;5.25;;
12118;SDS011;6123;48.864;9.200;2023-06-14T04:48:30;5.75;;;5.10;;
12118;SDS011;6123;48.864;9.200;2023-06-14T04:50:57;5.20;;;4.72;;
12118;SDS011;6123;48.864;9.200;2023-06-14T04:53:23;7.40;;;5.03;;
12118;SDS011;6123;48.864;9.200;2023-06-14T04:55:49;5.32;;;4.82;;
12118;SDS011;6123;48.864;9.200;2023-06-14T04:58:15;6.05;;;5.00;;
12118;SDS011;6123;48.864;9.200;2023-06-14T05:00:41;5.18;;;4.80;;
12118;SDS011;6123;48.864;9.200;2023-06-14T05:03:08;5.90;;;5.03;;
12118;SDS011;6123;48.864;9.200;2023-06-14T05:05:34;7.35;;;5.40;;
12118;SDS011;6123;48.864;9.200;2023-06-14T05:08:00;5.47;;;4.97;;
12118;SDS011;6123;48.864;9.200;2023-06-14T05:10:26;5.70;;;5.20;;
12118;SDS011;6123;48.864;9.200;2023-06-14T05:12:52;5.78;;;5.22;;
12118;SDS011;6123;48.864;9.200;2023-06-14T05:15:19;5.75;;;5.15;;
12118;SDS011;6123;48.864;9.200;2023-06-14T05:17:51;6.93;;;4.97;;
12118;SDS011;6123;48.864;9.200;2023-06-14T05:20:20;7.20;;;4.80;;
12118;SDS011;6123;48.864;9.200;2023-06-14T05:22:47;5.07;;;4.57;;
12118;SDS011;6123;48.864;9.200;2023-06-14T05:25:16;5.43;;;4.80;;
12118;SDS011;6123;48.864;9.200;2023-06-14T05:27:42;7.72;;;5.10;;
12118;SDS011;6123;48.864;9.200;2023-06-14T05:30:08;6.95;;;5.20;;
12118;SDS011;6123;48.864;9.200;2023-06-14T05:32:35;6.80;;;5.35;;
12118;SDS011;6123;48.864;9.200;2023-06-14T05:35:00;5.13;;;4.72;;
12118;SDS011;6123;48.864;9.200;2023-06-14T05:37:26;4.88;;;4.40;;
12118;SDS011;6123;48.864;9.200;2023-06-14T05:39:52;7.18;;;5.03;;
12118;SDS011;6123;48.864;9.200;2023-06-14T05:42:18;8.50;;;4.82;;
12118;SDS011;6123;48.864;9.200;2023-06-14T05:44:44;5.03;;;4.53;;
12118;SDS011;6123;48.864;9.200;2023-06-14T05:47:10;4.95;;;4.45;;
12118;SDS011;6123;48.864;9.200;2023-06-14T05:49:37;4.63;;;4.22;;
12118;SDS011;6123;48.864;9.200;2023-06-14T05:52:03;8.15;;;5.22;;
12118;SDS011;6123;48.864;9.200;2023-06-14T05:54:29;8.23;;;4.97;;
12118;SDS011;6123;48.864;9.200;2023-06-14T05:56:55;4.50;;;4.10;;
12118;SDS011;6123;48.864;9.200;2023-06-14T05:59:26;4.22;;;3.92;;
12118;SDS011;6123;48.864;9.200;2023-06-14T06:01:52;4.07;;;3.67;;
12118;SDS011;6123;48.864;9.200;2023-06-14T06:04:18;4.55;;;4.25;;
12118;SDS011;6123;48.864;9.200;2023-06-14T06:06:44;4.95;;;4.30;;
12118;SDS011;6123;48.864;9.200;2023-06-14T06:09:11;5.00;;;4.50;;
12118;SDS011;6123;48.864;9.200;2023-06-14T06:11:39;4.50;;;4.07;;
12118;SDS011;6123;48.864;9.200;2023-06-14T06:14:05;6.78;;;4.72;;
12118;SDS011;6123;48.864;9.200;2023-06-14T06:16:31;8.00;;;4.50;;
12118;SDS011;6123;48.864;9.200;2023-06-14T06:18:57;4.53;;;4.15;;
12118;SDS011;6123;48.864;9.200;2023-06-14T06:21:24;4.40;;;4.00;;
12118;SDS011;6123;48.864;9.200;2023-06-14T06:23:50;5.45;;;4.53;;
12118;SDS011;6123;48.864;9.200;2023-06-14T06:26:16;4.65;;;4.00;;
12118;SDS011;6123;48.864;9.200;2023-06-14T06:28:42;4.70;;;3.88;;
12118;SDS011;6123;48.864;9.200;2023-06-14T06:31:08;4.95;;;4.50;;
12118;SDS011;6123;48.864;9.200;2023-06-14T06:33:36;4.15;;;3.85;;
12118;SDS011;6123;48.864;9.200;2023-06-14T06:36:02;5.78;;;4.53;;
12118;SDS011;6123;48.864;9.200;2023-06-14T06:38:28;7.43;;;4.75;;
12118;SDS011;6123;48.864;9.200;2023-06-14T06:40:54;4.05;;;3.72;;
12118;SDS011;6123;48.864;9.200;2023-06-14T06:43:21;4.53;;;4.13;;
12118;SDS011;6123;48.864;9.200;2023-06-14T06:45:47;5.32;;;4.40;;
12118;SDS011;6123;48.864;9.200;2023-06-14T06:48:14;4.47;;;4.07;;
12118;SDS011;6123;48.864;9.200;2023-06-14T06:50:41;5.00;;;4.50;;
12118;SDS011;6123;48.864;9.200;2023-06-14T06:53:06;4.68;;;4.25;;
12118;SDS011;6123;48.864;9.200;2023-06-14T06:55:32;5.18;;;4.78;;
12118;SDS011;6123;48.864;9.200;2023-06-14T06:57:58;4.78;;;4.32;;
12118;SDS011;6123;48.864;9.200;2023-06-14T07:00:25;8.40;;;4.93;;
12118;SDS011;6123;48.864;9.200;2023-06-14T07:02:51;5.43;;;4.40;;
12118;SDS011;6123;48.864;9.200;2023-06-14T07:05:19;6.03;;;4.35;;
12118;SDS011;6123;48.864;9.200;2023-06-14T07:07:45;4.72;;;4.32;;
12118;SDS011;6123;48.864;9.200;2023-06-14T07:10:12;5.82;;;4.53;;
12118;SDS011;6123;48.864;9.200;2023-06-14T07:12:38;6.95;;;4.57;;
12118;SDS011;6123;48.864;9.200;2023-06-14T07:15:05;5.55;;;4.57;;
12118;SDS011;6123;48.864;9.200;2023-06-14T07:17:32;5.32;;;4.75;;
12118;SDS011;6123;48.864;9.200;2023-06-14T07:19:58;6.18;;;4.72;;
12118;SDS011;6123;48.864;9.200;2023-06-14T07:22:25;7.03;;;6.32;;
12118;SDS011;6123;48.864;9.200;2023-06-14T07:24:51;5.13;;;4.72;;
12118;SDS011;6123;48.864;9.200;2023-06-14T07:27:17;5.45;;;4.32;;
12118;SDS011;6123;48.864;9.200;2023-06-14T07:29:43;8.48;;;4.88;;
12118;SDS011;6123;48.864;9.200;2023-06-14T07:32:09;7.65;;;4.50;;
12118;SDS011;6123;48.864;9.200;2023-06-14T07:34:35;6.50;;;4.72;;
12118;SDS011;6123;48.864;9.200;2023-06-14T07:37:01;7.60;;;4.70;;
12118;SDS011;6123;48.864;9.200;2023-06-14T07:39:27;10.30;;;5.65;;
12118;SDS011;6123;48.864;9.200;2023-06-14T07:41:53;5.30;;;4.88;;
12118;SDS011;6123;48.864;9.200;2023-06-14T07:44:19;7.60;;;4.47;;
12118;SDS011;6123;48.864;9.200;2023-06-14T07:46:45;5.70;;;4.50;;
12118;SDS011;6123;48.864;9.200;2023-06-14T07:49:14;5.55;;;5.03;;
12118;SDS011;6123;48.864;9.200;2023-06-14T07:51:40;9.00;;;4.90;;
12118;SDS011;6123;48.864;9.200;2023-06-14T07:54:06;4.80;;;4.40;;
12118;SDS011;6123;48.864;9.200;2023-06-14T07:56:34;5.97;;;4.85;;
12118;SDS011;6123;48.864;9.200;2023-06-14T07:59:00;5.80;;;5.10;;
12118;SDS011;6123;48.864;9.200;2023-06-14T08:01:26;4.68;;;4.13;;
12118;SDS011;6123;48.864;9.200;2023-06-14T08:03:53;6.45;;;4.50;;
12118;SDS011;6123;48.864;9.200;2023-06-14T08:06:20;5.18;;;4.70;;
12118;SDS011;6123;48.864;9.200;2023-06-14T08:08:46;5.30;;;4.25;;
12118;SDS011;6123;48.864;9.200;2023-06-14T08:11:12;5.38;;;4.47;;
12118;SDS011;6123;48.864;9.200;2023-06-14T08:13:37;5.03;;;4.30;;
12118;SDS011;6123;48.864;9.200;2023-06-14T08:16:04;5.68;;;3.90;;
12118;SDS011;6123;48.864;9.200;2023-06-14T08:18:30;5.45;;;4.55;;
12118;SDS011;6123;48.864;9.200;2023-06-14T08:20:56;5.22;;;4.47;;
12118;SDS011;6123;48.864;9.200;2023-06-14T08:23:22;4.38;;;4.05;;
12118;SDS011;6123;48.864;9.200;2023-06-14T08:25:49;5.35;;;4.85;;
12118;SDS011;6123;48.864;9.200;2023-06-14T08:28:16;4.72;;;4.32;;
12118;SDS011;6123;48.864;9.200;2023-06-14T08:30:42;7.18;;;5.25;;
12118;SDS011;6123;48.864;9.200;2023-06-14T08:33:08;5.00;;;4.50;;
12118;SDS011;6123;48.864;9.200;2023-06-14T08:35:34;5.07;;;4.57;;
12118;SDS011;6123;48.864;9.200;2023-06-14T08:38:02;5.35;;;4.63;;
12118;SDS011;6123;48.864;9.200;2023-06-14T08:40:29;5.00;;;4.60;;
12118;SDS011;6123;48.864;9.200;2023-06-14T08:42:57;5.43;;;4.60;;
12118;SDS011;6123;48.864;9.200;2023-06-14T08:45:23;5.78;;;5.10;;
12118;SDS011;6123;48.864;9.200;2023-06-14T08:47:50;5.90;;;4.85;;
12118;SDS011;6123;48.864;9.200;2023-06-14T08:50:22;6.63;;;4.35;;
12118;SDS011;6123;48.864;9.200;2023-06-14T08:52:51;6.57;;;4.57;;
12118;SDS011;6123;48.864;9.200;2023-06-14T08:55:19;4.97;;;4.47;;
12118;SDS011;6123;48.864;9.200;2023-06-14T08:57:46;5.47;;;4.85;;
12118;SDS011;6123;48.864;9.200;2023-06-14T09:00:14;5.68;;;4.35;;
12118;SDS011;6123;48.864;9.200;2023-06-14T09:02:40;4.75;;;4.35;;
12118;SDS011;6123;48.864;9.200;2023-06-14T09:05:08;5.38;;;4.70;;
12118;SDS011;6123;48.864;9.200;2023-06-14T09:07:35;5.68;;;5.07;;
12118;SDS011;6123;48.864;9.200;2023-06-14T09:10:08;4.82;;;4.10;;
12118;SDS011;6123;48.864;9.200;2023-06-14T09:12:35;4.95;;;4.55;;
12118;SDS011;6123;48.864;9.200;2023-06-14T09:15:01;4.90;;;4.50;;
12118;SDS011;6123;48.864;9.200;2023-06-14T09:17:32;4.53;;;4.13;;
12118;SDS011;6123;48.864;9.200;2023-06-14T09:19:58;5.93;;;5.38;;
12118;SDS011;6123;48.864;9.200;2023-06-14T09:22:24;6.47;;;5.03;;
12118;SDS011;6123;48.864;9.200;2023-06-14T09:24:50;5.57;;;5.07;;
12118;SDS011;6123;48.864;9.200;2023-06-14T09:27:16;5.78;;;5.28;;
12118;SDS011;6123;48.864;9.200;2023-06-14T09:29:42;4.97;;;4.28;;
12118;SDS011;6123;48.864;9.200;2023-06-14T09:32:09;5.18;;;4.68;;
12118;SDS011;6123;48.864;9.200;2023-06-14T09:34:35;4.57;;;4.18;;
12118;SDS011;6123;48.864;9.200;2023-06-14T09:37:02;4.70;;;4.30;;
12118;SDS011;6123;48.864;9.200;2023-06-14T09:39:28;5.10;;;4.60;;
12118;SDS011;6123;48.864;9.200;2023-06-14T09:41:54;5.35;;;4.85;;
12118;SDS011;6123;48.864;9.200;2023-06-14T09:44:20;4.97;;;4.47;;
12118;SDS011;6123;48.864;9.200;2023-06-14T09:46:47;7.47;;;4.35;;
12118;SDS011;6123;48.864;9.200;2023-06-14T09:49:13;4.85;;;4.38;;
12118;SDS011;6123;48.864;9.200;2023-06-14T09:51:43;4.93;;;4.53;;
12118;SDS011;6123;48.864;9.200;2023-06-14T09:54:09;7.03;;;4.38;;
12118;SDS011;6123;48.864;9.200;2023-06-14T09:56:47;6.25;;;4.10;;
12118;SDS011;6123;48.864;9.200;2023-06-14T09:59:14;5.47;;;4.57;;
12118;SDS011;6123;48.864;9.200;2023-06-14T10:01:43;4.13;;;3.83;;
12118;SDS011;6123;48.864;9.200;2023-06-14T10:04:09;4.80;;;4.30;;
12118;SDS011;6123;48.864;9.200;2023-06-14T10:06:36;4.55;;;4.15;;
12118;SDS011;6123;48.864;9.200;2023-06-14T10:09:03;6.13;;;4.18;;
12118;SDS011;6123;48.864;9.200;2023-06-14T10:11:30;7.43;;;4.30;;
12118;SDS011;6123;48.864;9.200;2023-06-14T10:13:57;4.35;;;4.00;;
12118;SDS011;6123;48.864;9.200;2023-06-14T10:19:13;4.47;;;4.07;;
12118;SDS011;6123;48.864;9.200;2023-06-14T10:21:46;4.43;;;4.10;;
12118;SDS011;6123;48.864;9.200;2023-06-14T10:24:18;5.35;;;4.13;;
12118;SDS011;6123;48.864;9.200;2023-06-14T10:26:52;4.32;;;4.00;;
12118;SDS011;6123;48.864;9.200;2023-06-14T10:29:18;6.22;;;3.92;;
12118;SDS011;6123;48.864;9.200;2023-06-14T10:31:44;4.78;;;3.85;;
12118;SDS011;6123;48.864;9.200;2023-06-14T10:34:31;4.10;;;3.78;;
12118;SDS011;6123;48.864;9.200;2023-06-14T10:37:04;6.93;;;4.28;;
12118;SDS011;6123;48.864;9.200;2023-06-14T10:39:31;4.25;;;3.95;;
12118;SDS011;6123;48.864;9.200;2023-06-14T10:41:58;4.07;;;3.67;;
12118;SDS011;6123;48.864;9.200;2023-06-14T10:46:55;4.57;;;4.15;;
12118;SDS011;6123;48.864;9.200;2023-06-14T10:49:41;5.60;;;3.95;;
12118;SDS011;6123;48.864;9.200;2023-06-14T10:52:11;4.43;;;4.10;;
12118;SDS011;6123;48.864;9.200;2023-06-14T10:54:55;5.57;;;4.07;;
12118;SDS011;6123;48.864;9.200;2023-06-14T10:57:21;4.72;;;4.28;;
12118;SDS011;6123;48.864;9.200;2023-06-14T10:59:46;4.30;;;4.00;;
12118;SDS011;6123;48.864;9.200;2023-06-14T11:04:51;4.55;;;3.45;;
12118;SDS011;6123;48.864;9.200;2023-06-14T11:07:43;7.32;;;4.30;;
12118;SDS011;6123;48.864;9.200;2023-06-14T11:12:33;4.57;;;3.70;;
12118;SDS011;6123;48.864;9.200;2023-06-14T11:15:00;4.47;;;3.55;;
12118;SDS011;6123;48.864;9.200;2023-06-14T11:17:26;4.93;;;4.03;;
12118;SDS011;6123;48.864;9.200;2023-06-14T11:20:11;4.00;;;3.60;;
12118;SDS011;6123;48.864;9.200;2023-06-14T11:22:44;3.95;;;3.60;;
12118;SDS011;6123;48.864;9.200;2023-06-14T11:25:13;4.15;;;3.72;;
12118;SDS011;6123;48.864;9.200;2023-06-14T11:27:41;4.72;;;3.70;;
12118;SDS011;6123;48.864;9.200;2023-06-14T11:30:08;5.43;;;4.15;;
12118;SDS011;6123;48.864;9.200;2023-06-14T11:32:34;4.38;;;4.07;;
12118;SDS011;6123;48.864;9.200;2023-06-14T11:35:01;4.18;;;3.72;;
12118;SDS011;6123;48.864;9.200;2023-06-14T11:37:27;5.35;;;4.00;;
12118;SDS011;6123;48.864;9.200;2023-06-14T11:39:57;4.15;;;3.80;;
12118;SDS011;6123;48.864;9.200;2023-06-14T11:42:24;4.38;;;3.97;;
12118;SDS011;6123;48.864;9.200;2023-06-14T11:44:50;3.88;;;3.58;;
12118;SDS011;6123;48.864;9.200;2023-06-14T11:47:16;3.55;;;3.25;;
12118;SDS011;6123;48.864;9.200;2023-06-14T11:49:42;4.65;;;3.90;;
12118;SDS011;6123;48.864;9.200;2023-06-14T11:52:08;4.35;;;3.92;;
12118;SDS011;6123;48.864;9.200;2023-06-14T11:54:34;4.35;;;3.83;;
12118;SDS011;6123;48.864;9.200;2023-06-14T11:57:00;4.95;;;3.80;;
12118;SDS011;6123;48.864;9.200;2023-06-14T11:59:26;5.35;;;4.00;;
12118;SDS011;6123;48.864;9.200;2023-06-14T12:01:53;4.00;;;3.55;;
12118;SDS011;6123;48.864;9.200;2023-06-14T12:04:28;5.43;;;3.60;;
12118;SDS011;6123;48.864;9.200;2023-06-14T12:06:55;5.63;;;3.47;;
12118;SDS011;6123;48.864;9.200;2023-06-14T12:09:22;5.78;;;3.80;;
12118;SDS011;6123;48.864;9.200;2023-06-14T12:11:49;5.88;;;3.45;;
12118;SDS011;6123;48.864;9.200;2023-06-14T12:14:15;4.90;;;3.95;;
12118;SDS011;6123;48.864;9.200;2023-06-14T12:16:41;4.30;;;3.90;;
12118;SDS011;6123;48.864;9.200;2023-06-14T12:19:14;6.43;;;3.65;;
12118;SDS011;6123;48.864;9.200;2023-06-14T12:21:41;4.15;;;3.80;;
12118;SDS011;6123;48.864;9.200;2023-06-14T12:24:07;4.68;;;4.15;;
12118;SDS011;6123;48.864;9.200;2023-06-14T12:26:33;5.90;;;3.95;;
12118;SDS011;6123;48.864;9.200;2023-06-14T12:28:59;4.25;;;3.85;;
12118;SDS011;6123;48.864;9.200;2023-06-14T12:31:25;3.67;;;3.38;;
12118;SDS011;6123;48.864;9.200;2023-06-14T12:33:51;4.07;;;3.60;;
12118;SDS011;6123;48.864;9.200;2023-06-14T12:36:17;5.07;;;3.75;;
12118;SDS011;6123;48.864;9.200;2023-06-14T12:38:43;4.03;;;3.72;;
12118;SDS011;6123;48.864;9.200;2023-06-14T12:41:11;3.92;;;3.38;;
12118;SDS011;6123;48.864;9.200;2023-06-14T12:43:39;4.10;;;3.50;;
12118;SDS011;6123;48.864;9.200;2023-06-14T12:46:05;4.43;;;3.80;;
12118;SDS011;6123;48.864;9.200;2023-06-14T12:48:31;5.47;;;4.05;;
12118;SDS011;6123;48.864;9.200;2023-06-14T12:50:57;8.57;;;3.90;;
12118;SDS011;6123;48.864;9.200;2023-06-14T12:53:23;4.38;;;3.65;;
12118;SDS011;6123;48.864;9.200;2023-06-14T12:55:49;4.13;;;3.72;;
12118;SDS011;6123;48.864;9.200;2023-06-14T12:58:16;10.10;;;3.92;;
12118;SDS011;6123;48.864;9.200;2023-06-14T13:00:44;4.25;;;3.95;;
12118;SDS011;6123;48.864;9.200;2023-06-14T13:03:10;6.60;;;3.80;;
12118;SDS011;6123;48.864;9.200;2023-06-14T13:05:36;7.15;;;4.18;;
12118;SDS011;6123;48.864;9.200;2023-06-14T13:08:05;4.20;;;3.83;;
12118;SDS011;6123;48.864;9.200;2023-06-14T13:10:31;7.68;;;4.32;;
12118;SDS011;6123;48.864;9.200;2023-06-14T13:12:57;4.25;;;3.92;;
12118;SDS011;6123;48.864;9.200;2023-06-14T13:15:25;3.70;;;3.40;;
12118;SDS011;6123;48.864;9.200;2023-06-14T13:17:50;4.20;;;3.80;;
12118;SDS011;6123;48.864;9.200;2023-06-14T13:20:16;5.78;;;3.85;;
12118;SDS011;6123;48.864;9.200;2023-06-14T13:22:42;4.35;;;3.95;;
12118;SDS011;6123;48.864;9.200;2023-06-14T13:25:08;6.80;;;3.92;;
12118;SDS011;6123;48.864;9.200;2023-06-14T13:27:34;4.30;;;3.88;;
12118;SDS011;6123;48.864;9.200;2023-06-14T13:30:01;4.50;;;4.05;;
12118;SDS011;6123;48.864;9.200;2023-06-14T13:32:27;4.10;;;3.75;;
12118;SDS011;6123;48.864;9.200;2023-06-14T13:34:53;3.97;;;3.60;;
12118;SDS011;6123;48.864;9.200;2023-06-14T13:37:19;4.18;;;3.88;;
12118;SDS011;6123;48.864;9.200;2023-06-14T13:39:45;3.70;;;3.40;;
12118;SDS011;6123;48.864;9.200;2023-06-14T13:42:11;4.63;;;3.75;;
12118;SDS011;6123;48.864;9.200;2023-06-14T13:44:37;5.95;;;3.95;;
12118;SDS011;6123;48.864;9.200;2023-06-14T13:47:03;5.03;;;3.90;;
12118;SDS011;6123;48.864;9.200;2023-06-14T13:49:29;4.80;;;3.83;;
12118;SDS011;6123;48.864;9.200;2023-06-14T13:51:55;4.15;;;3.75;;
12118;SDS011;6123;48.864;9.200;2023-06-14T13:54:22;4.93;;;3.70;;
12118;SDS011;6123;48.864;9.200;2023-06-14T13:56:48;5.70;;;4.53;;
12118;SDS011;6123;48.864;9.200;2023-06-14T13:59:14;5.95;;;4.32;;
12118;SDS011;6123;48.864;9.200;2023-06-14T14:01:41;4.43;;;4.03;;
12118;SDS011;6123;48.864;9.200;2023-06-14T14:04:07;9.07;;;4.15;;
12118;SDS011;6123;48.864;9.200;2023-06-14T14:06:33;5.40;;;4.00;;
12118;SDS011;6123;48.864;9.200;2023-06-14T14:09:00;4.97;;;4.13;;
12118;SDS011;6123;48.864;9.200;2023-06-14T14:11:26;5.43;;;4.18;;
12118;SDS011;6123;48.864;9.200;2023-06-14T14:13:53;5.75;;;3.97;;
12118;SDS011;6123;48.864;9.200;2023-06-14T14:16:18;4.18;;;3.80;;
12118;SDS011;6123;48.864;9.200;2023-06-14T14:18:45;6.25;;;3.85;;
12118;SDS011;6123;48.864;9.200;2023-06-14T14:21:11;4.18;;;3.78;;
12118;SDS011;6123;48.864;9.200;2023-06-14T14:23:38;3.78;;;3.47;;
12118;SDS011;6123;48.864;9.200;2023-06-14T14:26:04;3.92;;;3.63;;
12118;SDS011;6123;48.864;9.200;2023-06-14T14:28:30;5.00;;;4.28;;
12118;SDS011;6123;48.864;9.200;2023-06-14T14:30:57;6.32;;;3.70;;
12118;SDS011;6123;48.864;9.200;2023-06-14T14:33:24;4.13;;;3.72;;
12118;SDS011;6123;48.864;9.200;2023-06-14T14:35:50;9.25;;;3.90;;
12118;SDS011;6123;48.864;9.200;2023-06-14T14:38:16;6.40;;;4.15;;
12118;SDS011;6123;48.864;9.200;2023-06-14T14:40:43;4.03;;;3.78;;
12118;SDS011;6123;48.864;9.200;2023-06-14T14:43:09;5.05;;;4.22;;
12118;SDS011;6123;48.864;9.200;2023-06-14T14:45:35;5.50;;;4.13;;
12118;SDS011;6123;48.864;9.200;2023-06-14T14:48:02;4.38;;;3.72;;
12118;SDS011;6123;48.864;9.200;2023-06-14T14:50:28;4.50;;;3.88;;
12118;SDS011;6123;48.864;9.200;2023-06-14T14:52:54;4.25;;;3.85;;
12118;SDS011;6123;48.864;9.200;2023-06-14T14:55:20;6.00;;;3.50;;
12118;SDS011;6123;48.864;9.200;2023-06-14T14:57:46;4.07;;;3.78;;
12118;SDS011;6123;48.864;9.200;2023-06-14T15:00:15;3.60;;;3.30;;
12118;SDS011;6123;48.864;9.200;2023-06-14T15:02:41;3.97;;;3.60;;
12118;SDS011;6123;48.864;9.200;2023-06-14T15:05:07;6.53;;;4.22;;
12118;SDS011;6123;48.864;9.200;2023-06-14T15:07:33;4.22;;;3.58;;
12118;SDS011;6123;48.864;9.200;2023-06-14T15:09:59;4.00;;;3.70;;
12118;SDS011;6123;48.864;9.200;2023-06-14T15:12:25;4.65;;;3.88;;
12118;SDS011;6123;48.864;9.200;2023-06-14T15:14:51;4.05;;;3.72;;